createdAt,value
2022-08-14T00:00:06.101Z,26.11
2022-08-14T00:02:54.875Z,26.10
2022-08-14T00:05:23.831Z,26.12
2022-08-14T00:07:52.684Z,26.11
2022-08-14T00:10:51.569Z,26.13
2022-08-14T00:13:14.672Z,26.10
2022-08-14T00:15:48.180Z,26.09
2022-08-14T00:19:05.549Z,26.10
2022-08-14T00:21:11.430Z,26.11
2022-08-14T00:23:41.024Z,26.10
2022-08-14T00:26:21.979Z,26.09
2022-08-14T00:28:53.476Z,26.09
2022-08-14T00:31:44.156Z,26.08
2022-08-14T00:34:37.746Z,26.08
2022-08-14T00:37:00.607Z,26.07
2022-08-14T00:39:31.027Z,26.06
2022-08-14T00:41:59.988Z,26.05
2022-08-14T00:44:32.830Z,26.03
2022-08-14T00:47:07.843Z,26.00
2022-08-14T00:49:42.581Z,25.99
2022-08-14T00:52:17.856Z,25.98
2022-08-14T00:54:52.929Z,25.97
2022-08-14T00:57:29.613Z,25.96
2022-08-14T01:00:00.025Z,25.95
2022-08-14T01:02:45.984Z,25.93
2022-08-14T01:05:23.330Z,25.91
2022-08-14T01:07:57.147Z,25.89
2022-08-14T01:10:43.660Z,25.86
2022-08-14T01:13:16.827Z,25.83
2022-08-14T01:15:57.780Z,25.81
2022-08-14T01:18:57.803Z,25.81
2022-08-14T01:21:34.646Z,25.72
2022-08-14T01:24:09.915Z,25.64
2022-08-14T01:26:39.860Z,25.59
2022-08-14T01:29:10.855Z,25.56
2022-08-14T01:31:45.915Z,25.53
2022-08-14T01:35:17.180Z,25.49
2022-08-14T01:37:11.776Z,25.45
2022-08-14T01:39:45.359Z,25.40
2022-08-14T01:42:30.991Z,25.38
2022-08-14T01:45:01.410Z,25.34
2022-08-14T01:47:33.555Z,25.32
2022-08-14T01:50:08.182Z,25.30
2022-08-14T01:52:59.143Z,25.25
2022-08-14T01:55:31.131Z,25.18
2022-08-14T01:58:20.325Z,25.14
2022-08-14T02:00:53.589Z,25.13
2022-08-14T02:03:24.565Z,25.10
2022-08-14T02:06:03.911Z,25.05
2022-08-14T02:08:53.234Z,24.99
2022-08-14T02:11:25.700Z,24.98
2022-08-14T02:13:59.091Z,24.95
2022-08-14T02:16:32.291Z,24.91
2022-08-14T02:19:05.093Z,24.85
2022-08-14T02:21:43.609Z,24.83
2022-08-14T02:24:40.231Z,24.81
2022-08-14T02:28:22.670Z,24.77
2022-08-14T02:29:55.942Z,24.74
2022-08-14T02:32:36.259Z,24.69
2022-08-14T02:35:13.171Z,24.63
2022-08-14T02:37:47.444Z,24.58
2022-08-14T02:40:18.795Z,24.50
2022-08-14T02:42:54.739Z,24.42
2022-08-14T02:45:32.812Z,24.34
2022-08-14T02:48:06.436Z,24.23
2022-08-14T02:50:41.435Z,24.15
2022-08-14T02:53:11.551Z,24.09
2022-08-14T02:55:45.447Z,24.07
2022-08-14T02:58:30.373Z,24.07
2022-08-14T03:01:01.345Z,24.07
2022-08-14T03:03:31.783Z,24.07
2022-08-14T03:06:01.155Z,24.04
2022-08-14T03:08:32.612Z,24.05
2022-08-14T03:11:06.003Z,24.00
2022-08-14T03:13:37.738Z,23.97
2022-08-14T03:16:19.852Z,23.95
2022-08-14T03:18:53.100Z,23.90
2022-08-14T03:21:24.364Z,23.89
2022-08-14T03:24:01.428Z,23.87
2022-08-14T03:26:30.920Z,23.84
2022-08-14T03:29:01.164Z,23.85
2022-08-14T03:31:31.270Z,23.86
2022-08-14T03:34:00.741Z,23.87
2022-08-14T03:37:51.594Z,23.88
2022-08-14T03:39:24.023Z,23.89
2022-08-14T03:41:55.431Z,23.86
2022-08-14T03:45:20.037Z,23.84
2022-08-14T03:47:15.409Z,23.82
2022-08-14T03:49:50.085Z,23.81
2022-08-14T03:52:40.810Z,23.79
2022-08-14T03:55:12.014Z,23.75
2022-08-14T03:57:40.975Z,23.71
2022-08-14T04:00:43.395Z,23.72
2022-08-14T04:03:24.359Z,23.72
2022-08-14T04:05:53.911Z,23.72
2022-08-14T04:08:30.974Z,23.74
2022-08-14T04:11:01.851Z,23.74
2022-08-14T04:13:34.627Z,23.75
2022-08-14T04:16:05.155Z,23.73
2022-08-14T04:18:39.224Z,23.71
2022-08-14T04:21:09.610Z,23.69
2022-08-14T04:23:40.053Z,23.68
2022-08-14T04:26:14.967Z,23.67
2022-08-14T04:29:06.969Z,23.67
2022-08-14T04:33:00.313Z,23.72
2022-08-14T04:34:34.572Z,23.76
2022-08-14T04:37:25.242Z,23.80
2022-08-14T04:40:15.200Z,23.81
2022-08-14T04:43:03.061Z,23.85
2022-08-14T04:45:40.000Z,23.89
2022-08-14T04:48:39.672Z,23.91
2022-08-14T04:51:05.118Z,23.96
2022-08-14T04:53:36.230Z,23.94
2022-08-14T04:56:30.817Z,23.94
2022-08-14T04:59:04.644Z,23.95
2022-08-14T05:01:47.668Z,23.93
2022-08-14T05:04:19.947Z,23.91
2022-08-14T05:06:53.562Z,23.91
2022-08-14T05:09:24.564Z,23.91
2022-08-14T05:13:08.301Z,23.85
2022-08-14T05:14:55.121Z,23.84
2022-08-14T05:17:34.753Z,23.87
2022-08-14T05:21:57.724Z,23.91
2022-08-14T05:23:02.893Z,23.97
2022-08-14T05:25:34.127Z,24.00
2022-08-14T05:28:18.574Z,24.03
2022-08-14T05:30:49.289Z,24.09
2022-08-14T05:33:21.868Z,24.10
2022-08-14T05:35:52.417Z,24.13
2022-08-14T05:38:31.095Z,24.15
2022-08-14T05:41:02.384Z,24.20
2022-08-14T05:43:41.262Z,24.26
2022-08-14T05:46:15.243Z,24.29
2022-08-14T05:48:47.190Z,24.30
2022-08-14T05:51:17.398Z,24.30
2022-08-14T05:54:00.189Z,24.31
2022-08-14T05:56:37.078Z,24.34
2022-08-14T05:59:06.150Z,24.37
2022-08-14T06:01:36.563Z,24.41
2022-08-14T06:04:08.574Z,24.42
2022-08-14T06:06:38.427Z,24.42
2022-08-14T06:09:09.728Z,24.40
2022-08-14T06:11:39.115Z,24.39
2022-08-14T06:14:20.988Z,24.39
2022-08-14T06:16:53.294Z,24.42
2022-08-14T06:19:23.128Z,24.45
2022-08-14T06:21:59.196Z,24.50
2022-08-14T06:24:35.069Z,24.54
2022-08-14T06:27:06.159Z,24.58
2022-08-14T06:29:39.615Z,24.62
2022-08-14T06:32:36.786Z,24.67
2022-08-14T06:35:09.809Z,24.74
2022-08-14T06:37:45.428Z,24.81
2022-08-14T06:40:26.200Z,24.83
2022-08-14T06:43:00.118Z,24.87
2022-08-14T06:45:32.936Z,24.94
2022-08-14T06:48:06.208Z,25.00
2022-08-14T06:50:41.659Z,25.08
2022-08-14T06:53:17.225Z,25.17
2022-08-14T06:55:58.167Z,25.17
2022-08-14T06:58:31.912Z,25.16
2022-08-14T07:01:26.909Z,25.20
2022-08-14T07:04:23.076Z,25.28
2022-08-14T07:06:55.515Z,25.43
2022-08-14T07:09:43.501Z,25.50
2022-08-14T07:12:52.326Z,25.59
2022-08-14T07:15:08.870Z,25.61
2022-08-14T07:17:46.355Z,25.65
2022-08-14T07:20:30.930Z,25.77
2022-08-14T07:23:07.704Z,25.91
2022-08-14T07:25:38.935Z,26.01
2022-08-14T07:28:20.542Z,26.18
2022-08-14T07:30:52.147Z,26.15
2022-08-14T07:33:24.424Z,26.05
2022-08-14T07:35:59.698Z,26.03
2022-08-14T07:38:35.879Z,26.01
2022-08-14T07:41:14.411Z,26.04
2022-08-14T07:43:53.102Z,26.01
2022-08-14T07:46:29.398Z,25.94
2022-08-14T07:49:00.267Z,25.75
2022-08-14T07:51:34.414Z,25.53
2022-08-14T07:54:11.063Z,25.30
2022-08-14T07:56:48.193Z,25.20
2022-08-14T07:59:21.339Z,25.15
2022-08-14T08:02:19.651Z,25.05
2022-08-14T08:04:54.891Z,24.88
2022-08-14T08:07:29.586Z,24.79
2022-08-14T08:10:45.984Z,24.79
2022-08-14T08:13:16.016Z,24.70
2022-08-14T08:15:47.402Z,24.63
2022-08-14T08:18:20.337Z,24.59
2022-08-14T08:20:59.498Z,24.58
2022-08-14T08:23:40.515Z,24.51
2022-08-14T08:26:12.650Z,24.50
2022-08-14T08:28:43.911Z,24.49
2022-08-14T08:31:13.099Z,24.48
2022-08-14T08:33:43.069Z,24.48
2022-08-14T08:36:12.885Z,24.44
2022-08-14T08:39:14.611Z,24.46
2022-08-14T08:41:44.580Z,24.50
2022-08-14T08:44:17.273Z,24.55
2022-08-14T08:47:05.091Z,24.57
2022-08-14T08:49:42.293Z,24.58
2022-08-14T08:52:24.404Z,24.63
2022-08-14T08:54:55.691Z,24.70
2022-08-14T08:57:24.751Z,24.77
2022-08-14T08:59:55.356Z,24.86
2022-08-14T09:02:28.429Z,25.06
2022-08-14T09:05:03.841Z,25.18
2022-08-14T09:07:35.999Z,25.25
2022-08-14T09:10:06.119Z,25.33
2022-08-14T09:12:39.039Z,25.35
2022-08-14T09:15:15.618Z,25.41
2022-08-14T09:17:44.652Z,25.53
2022-08-14T09:20:26.354Z,25.61
2022-08-14T09:23:00.584Z,25.56
2022-08-14T09:25:59.080Z,25.53
2022-08-14T09:28:20.211Z,25.45
2022-08-14T09:30:56.179Z,25.36
2022-08-14T09:33:55.879Z,25.26
2022-08-14T09:36:40.145Z,25.07
2022-08-14T09:39:27.979Z,24.99
2022-08-14T09:42:17.816Z,24.96
2022-08-14T09:45:12.248Z,24.87
2022-08-14T09:47:46.545Z,24.70
2022-08-14T09:50:21.421Z,24.67
2022-08-14T09:52:58.077Z,24.64
2022-08-14T09:55:36.891Z,24.59
2022-08-14T09:58:19.441Z,24.59
2022-08-14T10:00:52.781Z,24.63
2022-08-14T10:03:34.356Z,24.71
2022-08-14T10:06:09.253Z,24.82
2022-08-14T10:08:50.894Z,24.92
2022-08-14T10:11:23.855Z,25.00
2022-08-14T10:13:57.495Z,25.07
2022-08-14T10:16:33.525Z,25.20
2022-08-14T10:19:07.081Z,25.29
2022-08-14T10:21:38.713Z,25.38
2022-08-14T10:24:12.496Z,25.45
2022-08-14T10:27:00.586Z,25.51
2022-08-14T10:29:35.127Z,25.60
2022-08-14T10:32:18.285Z,25.72
2022-08-14T10:35:13.348Z,25.83
2022-08-14T10:37:49.050Z,25.91
2022-08-14T10:40:37.989Z,25.98
2022-08-14T10:43:22.762Z,26.09
2022-08-14T10:46:21.947Z,26.19
2022-08-14T10:48:59.673Z,26.29
2022-08-14T10:51:34.049Z,26.37
2022-08-14T10:54:35.277Z,26.44
2022-08-14T10:56:58.316Z,26.54
2022-08-14T10:59:30.772Z,26.62
2022-08-14T11:02:00.680Z,26.69
2022-08-14T11:04:30.748Z,26.79
2022-08-14T11:07:00.013Z,26.93
2022-08-14T11:09:31.295Z,27.08
2022-08-14T11:12:33.793Z,27.21
2022-08-14T11:14:59.838Z,27.33
2022-08-14T11:17:33.013Z,27.44
2022-08-14T11:20:05.967Z,27.55
2022-08-14T11:23:03.157Z,27.65
2022-08-14T11:25:43.534Z,27.74
2022-08-14T11:28:14.874Z,27.85
2022-08-14T11:30:53.633Z,27.95
2022-08-14T11:33:24.691Z,28.05
2022-08-14T11:35:53.739Z,28.16
2022-08-14T11:38:35.553Z,28.26
2022-08-14T11:41:07.719Z,28.35
2022-08-14T11:43:40.567Z,28.40
2022-08-14T11:46:17.897Z,28.47
2022-08-14T11:49:03.994Z,28.52
2022-08-14T11:51:50.835Z,28.57
2022-08-14T11:54:34.578Z,28.59
2022-08-14T11:57:05.385Z,28.60
2022-08-14T11:59:34.348Z,28.50
2022-08-14T12:03:01.093Z,28.43
2022-08-14T12:05:04.768Z,28.42
2022-08-14T12:07:49.338Z,28.44
2022-08-14T12:10:26.121Z,28.37
2022-08-14T12:13:14.428Z,28.30
2022-08-14T12:15:56.804Z,28.27
2022-08-14T12:18:32.363Z,28.32
2022-08-14T12:21:15.698Z,28.37
2022-08-14T12:24:01.905Z,28.40
2022-08-14T12:26:39.866Z,28.37
2022-08-14T12:29:13.134Z,28.33
2022-08-14T12:31:44.546Z,28.30
2022-08-14T12:34:20.117Z,28.30
2022-08-14T12:36:49.630Z,28.29
2022-08-14T12:39:22.397Z,28.24
2022-08-14T12:41:57.294Z,28.17
2022-08-14T12:44:34.443Z,28.15
2022-08-14T12:47:10.637Z,28.12
2022-08-14T12:49:51.780Z,28.11
2022-08-14T12:52:45.165Z,28.08
2022-08-14T12:55:20.663Z,28.07
2022-08-14T12:57:53.126Z,28.00
2022-08-14T13:00:24.848Z,27.95
2022-08-14T13:02:56.602Z,27.94
2022-08-14T13:05:29.367Z,27.97
2022-08-14T13:08:00.722Z,27.99
2022-08-14T13:10:51.227Z,27.94
2022-08-14T13:13:22.373Z,27.91
2022-08-14T13:15:57.226Z,27.87
2022-08-14T13:18:46.736Z,27.73
2022-08-14T13:21:17.040Z,27.57
2022-08-14T13:23:46.596Z,27.49
2022-08-14T13:26:19.139Z,27.41
2022-08-14T13:29:02.481Z,27.34
2022-08-14T13:31:35.023Z,27.30
2022-08-14T13:34:04.505Z,27.28
2022-08-14T13:36:54.801Z,27.20
2022-08-14T13:39:24.559Z,27.09
2022-08-14T13:41:55.694Z,27.00
2022-08-14T13:44:28.084Z,26.85
2022-08-14T13:46:58.006Z,26.71
2022-08-14T13:49:29.046Z,26.62
2022-08-14T13:52:01.427Z,26.51
2022-08-14T13:54:34.023Z,26.42
2022-08-14T13:57:03.442Z,26.35
2022-08-14T13:59:37.981Z,26.28
2022-08-14T14:02:09.037Z,26.22
2022-08-14T14:04:42.776Z,26.14
2022-08-14T14:07:16.979Z,26.09
2022-08-14T14:09:52.965Z,26.03
2022-08-14T14:12:38.220Z,25.96
2022-08-14T14:15:13.988Z,25.90
2022-08-14T14:17:47.339Z,25.80
2022-08-14T14:20:35.553Z,25.72
2022-08-14T14:23:11.864Z,25.65
2022-08-14T14:25:48.119Z,25.59
2022-08-14T14:28:24.543Z,25.66
2022-08-14T14:30:57.362Z,25.61
2022-08-14T14:33:49.324Z,25.54
2022-08-14T14:36:24.417Z,25.56
2022-08-14T14:38:55.508Z,25.58
2022-08-14T14:41:26.211Z,25.57
2022-08-14T14:43:58.301Z,25.57
2022-08-14T14:46:36.630Z,25.62
2022-08-14T14:49:08.092Z,25.65
2022-08-14T14:51:43.988Z,25.66
2022-08-14T14:54:18.250Z,25.67
2022-08-14T14:56:51.580Z,25.62
2022-08-14T14:59:23.826Z,25.56
2022-08-14T15:01:59.375Z,25.48
2022-08-14T15:04:28.267Z,25.45
2022-08-14T15:06:57.231Z,25.40
2022-08-14T15:09:26.603Z,25.36
2022-08-14T15:11:57.160Z,25.35
2022-08-14T15:14:55.276Z,25.31
2022-08-14T15:17:16.487Z,25.24
2022-08-14T15:19:53.793Z,25.20
2022-08-14T15:22:28.286Z,25.25
2022-08-14T15:24:59.381Z,25.30
2022-08-14T15:27:30.963Z,25.34
2022-08-14T15:30:01.336Z,25.33
2022-08-14T15:32:31.520Z,25.28
2022-08-14T15:35:02.545Z,25.25
2022-08-14T15:37:32.890Z,25.29
2022-08-14T15:40:05.732Z,25.30
2022-08-14T15:42:39.501Z,25.30
2022-08-14T15:45:12.140Z,25.34
2022-08-14T15:47:42.857Z,25.35
2022-08-14T15:50:12.214Z,25.38
2022-08-14T15:52:44.837Z,25.41
2022-08-14T15:55:16.107Z,25.42
2022-08-14T15:58:02.343Z,25.40
2022-08-14T16:00:53.532Z,25.37
2022-08-14T16:03:27.665Z,25.38
2022-08-14T16:06:05.836Z,25.38
2022-08-14T16:08:41.091Z,25.36
2022-08-14T16:11:11.299Z,25.34
2022-08-14T16:13:43.079Z,25.30
2022-08-14T16:16:49.364Z,25.28
2022-08-14T16:19:10.940Z,25.25
2022-08-14T16:22:02.320Z,25.28
2022-08-14T16:24:35.925Z,25.28
2022-08-14T16:27:39.678Z,25.30
2022-08-14T16:30:24.763Z,25.29
2022-08-14T16:32:59.419Z,25.26
2022-08-14T16:35:41.928Z,25.22
2022-08-14T16:40:25.544Z,25.22
2022-08-14T16:41:25.728Z,25.22
2022-08-14T16:44:01.156Z,25.25
2022-08-14T16:46:34.107Z,25.27
2022-08-14T16:49:05.395Z,25.29
2022-08-14T16:51:38.741Z,25.28
2022-08-14T16:54:20.703Z,25.27
2022-08-14T16:57:13.686Z,25.25
2022-08-14T16:59:51.907Z,25.22
2022-08-14T17:02:35.147Z,25.20
2022-08-14T17:05:21.610Z,25.19
2022-08-14T17:08:32.654Z,25.16
2022-08-14T17:11:10.571Z,25.12
2022-08-14T17:13:58.939Z,25.10
2022-08-14T17:16:37.151Z,25.10
2022-08-14T17:19:13.670Z,25.04
2022-08-14T17:21:47.585Z,24.99
2022-08-14T17:24:57.230Z,24.90
2022-08-14T17:27:08.347Z,24.89
2022-08-14T17:29:54.636Z,24.90
2022-08-14T17:32:55.654Z,24.93
2022-08-14T17:35:57.566Z,24.95
2022-08-14T17:38:38.703Z,24.93
2022-08-14T17:41:22.906Z,24.89
2022-08-14T17:43:55.321Z,24.89
2022-08-14T17:46:37.568Z,24.92
2022-08-14T17:49:18.132Z,24.89
2022-08-14T17:52:16.825Z,24.86
2022-08-14T17:54:52.665Z,24.83
2022-08-14T17:57:30.362Z,24.82
2022-08-14T18:00:09.374Z,24.80
2022-08-14T18:02:50.596Z,24.80
2022-08-14T18:05:23.353Z,24.79
2022-08-14T18:08:32.425Z,24.77
2022-08-14T18:11:03.219Z,24.75
2022-08-14T18:13:51.324Z,24.74
2022-08-14T18:16:22.992Z,24.73
2022-08-14T18:18:52.203Z,24.75
2022-08-14T18:21:56.597Z,24.77
2022-08-14T18:24:28.457Z,24.71
2022-08-14T18:27:06.895Z,24.66
2022-08-14T18:29:44.892Z,24.66
2022-08-14T18:32:47.179Z,24.69
2022-08-14T18:35:19.320Z,24.68
2022-08-14T18:37:56.158Z,24.65
2022-08-14T18:40:34.756Z,24.64
2022-08-14T18:43:07.156Z,24.60
2022-08-14T18:46:00.057Z,24.59
2022-08-14T18:48:43.016Z,24.62
2022-08-14T18:51:46.135Z,24.62
2022-08-14T18:54:29.970Z,24.54
2022-08-14T18:57:03.957Z,24.45
2022-08-14T18:59:39.231Z,24.36
2022-08-14T19:02:43.282Z,24.28
2022-08-14T19:05:13.017Z,24.11
2022-08-14T19:07:47.991Z,23.88
2022-08-14T19:10:37.204Z,23.63
2022-08-14T19:13:12.967Z,23.43
2022-08-14T19:16:03.577Z,23.31
2022-08-14T19:18:38.339Z,23.16
2022-08-14T19:21:25.004Z,23.06
2022-08-14T19:24:27.278Z,22.92
2022-08-14T19:27:19.291Z,22.80
2022-08-14T19:30:19.648Z,22.75
2022-08-14T19:32:53.025Z,22.60
2022-08-14T19:35:56.021Z,22.53
2022-08-14T19:38:54.707Z,22.43
2022-08-14T19:41:30.064Z,22.27
2022-08-14T19:44:11.721Z,22.09
2022-08-14T19:47:00.387Z,21.99
2022-08-14T19:50:08.709Z,21.89
2022-08-14T19:52:29.609Z,21.90
2022-08-14T19:55:34.162Z,21.94
2022-08-14T19:58:05.010Z,21.95
2022-08-14T20:00:34.675Z,21.94
2022-08-14T20:03:23.466Z,21.90
2022-08-14T20:06:02.570Z,21.87
2022-08-14T20:10:58.598Z,21.87
2022-08-14T20:12:00.677Z,21.89
2022-08-14T20:14:29.430Z,21.91
2022-08-14T20:17:06.323Z,21.92
2022-08-14T20:19:38.070Z,21.90
2022-08-14T20:22:36.948Z,21.85
2022-08-14T20:25:13.780Z,21.83
2022-08-14T20:27:49.090Z,21.85
2022-08-14T20:30:33.930Z,21.82
2022-08-14T20:33:07.503Z,21.80
2022-08-14T20:35:42.372Z,21.77
2022-08-14T20:38:29.277Z,21.67
2022-08-14T20:41:06.612Z,21.53
2022-08-14T20:43:56.329Z,21.47
2022-08-14T20:46:29.864Z,21.44
2022-08-14T20:49:01.428Z,21.37
2022-08-14T20:51:47.493Z,21.35
2022-08-14T20:54:34.605Z,21.36
2022-08-14T20:57:10.897Z,21.32
2022-08-14T20:59:43.363Z,21.28
2022-08-14T21:02:34.383Z,21.28
2022-08-14T21:05:18.043Z,21.28
2022-08-14T21:07:51.371Z,21.25
2022-08-14T21:10:35.235Z,21.21
2022-08-14T21:13:26.791Z,21.23
2022-08-14T21:15:57.488Z,21.29
2022-08-14T21:18:30.477Z,21.33
2022-08-14T21:21:07.098Z,21.39
2022-08-14T21:23:55.027Z,21.44
2022-08-14T21:26:51.284Z,21.50
2022-08-14T21:29:16.876Z,21.54
2022-08-14T21:31:55.777Z,21.55
2022-08-14T21:34:31.492Z,21.55
2022-08-14T21:37:08.862Z,21.54
2022-08-14T21:39:38.427Z,21.54
2022-08-14T21:42:10.955Z,21.56
2022-08-14T21:44:43.203Z,21.58
2022-08-14T21:47:16.010Z,21.52
2022-08-14T21:49:47.873Z,21.48
2022-08-14T21:52:50.645Z,21.46
2022-08-14T21:55:13.435Z,21.46
2022-08-14T21:57:56.615Z,21.44
2022-08-14T22:00:39.695Z,21.45
2022-08-14T22:03:16.467Z,21.47
2022-08-14T22:05:48.877Z,21.48
2022-08-14T22:08:20.711Z,21.52
2022-08-14T22:10:51.524Z,21.54
2022-08-14T22:13:25.863Z,21.59
2022-08-14T22:15:59.521Z,21.62
2022-08-14T22:18:29.843Z,21.63
2022-08-14T22:20:59.925Z,21.67
2022-08-14T22:23:35.143Z,21.68
2022-08-14T22:26:05.181Z,21.66
2022-08-14T22:28:34.880Z,21.68
2022-08-14T22:31:10.678Z,21.70
2022-08-14T22:33:40.455Z,21.68
2022-08-14T22:36:33.844Z,21.69
2022-08-14T22:39:11.091Z,21.68
2022-08-14T22:41:43.170Z,21.66
2022-08-14T22:44:15.420Z,21.66
2022-08-14T22:46:45.314Z,21.65
2022-08-14T22:50:29.030Z,21.66
2022-08-14T22:52:33.323Z,21.61
2022-08-14T22:54:58.845Z,21.60
2022-08-14T22:57:37.595Z,21.60
2022-08-14T23:00:15.318Z,21.57
2022-08-14T23:02:47.124Z,21.54
2022-08-14T23:05:38.782Z,21.49
2022-08-14T23:09:01.644Z,21.46
2022-08-14T23:11:01.371Z,21.38
2022-08-14T23:13:32.651Z,21.35
2022-08-14T23:16:01.897Z,21.35
2022-08-14T23:18:30.724Z,21.32
2022-08-14T23:20:59.635Z,21.28
2022-08-14T23:23:28.820Z,21.23
2022-08-14T23:26:47.086Z,21.25
2022-08-14T23:28:58.524Z,21.31
2022-08-14T23:31:34.631Z,21.29
2022-08-14T23:34:07.691Z,21.24
2022-08-14T23:36:54.441Z,21.25
2022-08-14T23:39:30.183Z,21.30
2022-08-14T23:42:04.202Z,21.27
2022-08-14T23:44:36.434Z,21.18
2022-08-14T23:47:10.916Z,21.13
2022-08-14T23:50:03.167Z,21.14
2022-08-14T23:52:50.627Z,21.17
2022-08-14T23:55:29.143Z,21.19
2022-08-14T23:57:59.277Z,21.21
